Salinas, California
Current Conditions -  °F | °C
As of 8:53 AM on Saturday 20 Dec 2014 (Local Time) from KSNS Reporting Station
Overcast Overcast  
Wind Chill: 57°   Ceiling: 3000
Heat Index: 57°   Visibility: 10mi
Dew Point: 54°   Wind: 9mph
Humidity: 89%   Direction: 90°E
Pressure: 30.2"   Gusts: NA
Location:  36.67°N, 121.65°W
Report Text: KSNS 201653Z 09008KT 10SM OVC030 14/12 A3020 RMK AO2 SLP236 T01390122
Loading
Personal Weather Stations






























Interactive Weather Map New forecast layout! Learn more

10-Day Weather Forecast

Advertisements
Track Severe Weather on mobile